Time;durP1;ratioP1;P1;durP2;ratioP2;P2;SDS_P1;SDS_P2;PMS_P1;PMS_P2;Temp;Humidity;BMP_temperature;BMP_pressure;BME280_temperature;BME280_humidity;BME280_pressure;Samples;Min_cycle;Max_cycle;Signal;HPM_P1;HPM_P2
2021/09/21 00:00:39;;;;;;;26.25;10.73;;;;;;;2.68;69.81;100424.38;5053676;28;20045;-79
2021/09/21 00:03:05;;;;;;;20.83;10.95;;;;;;;2.73;69.40;100426.00;5053356;28;20041;-80
2021/09/21 00:05:31;;;;;;;23.83;13.20;;;;;;;2.70;69.57;100426.09;5051659;28;20067;-79
2021/09/21 00:07:57;;;;;;;19.70;12.07;;;;;;;2.65;69.55;100423.59;5053142;28;20215;-80
2021/09/21 00:10:23;;;;;;;20.20;11.32;;;;;;;2.66;69.63;100433.22;5035258;28;20408;-78
2021/09/21 00:12:49;;;;;;;21.48;11.35;;;;;;;2.78;69.19;100424.06;5052909;28;20069;-78
2021/09/21 00:15:17;;;;;;;20.63;11.80;;;;;;;2.86;68.77;100427.38;5053403;28;20041;-79
2021/09/21 00:17:43;;;;;;;19.02;11.82;;;;;;;2.90;68.71;100429.84;5035567;28;20041;-81
2021/09/21 00:20:09;;;;;;;24.77;13.45;;;;;;;2.95;68.60;100421.78;5053078;28;20052;-80
2021/09/21 00:22:35;;;;;;;22.65;11.77;;;;;;;2.96;68.31;100412.94;5018566;28;20048;-81
2021/09/21 00:25:02;;;;;;;22.58;12.60;;;;;;;3.04;68.19;100424.13;5051677;28;20045;-79
2021/09/21 00:27:27;;;;;;;20.42;11.82;;;;;;;3.09;67.71;100424.84;5052891;28;20056;-80
2021/09/21 00:30:09;;;;;;;23.30;11.93;;;;;;;3.17;67.45;100425.47;5052161;28;20411;-81
2021/09/21 00:32:35;;;;;;;19.13;10.70;;;;;;;3.13;67.23;100415.06;5051666;28;20037;-81
2021/09/21 00:35:01;;;;;;;19.80;10.60;;;;;;;3.17;66.99;100430.75;5052845;28;20136;-80
2021/09/21 00:37:26;;;;;;;19.17;11.60;;;;;;;3.09;66.86;100426.63;5052664;28;20098;-78
2021/09/21 00:39:52;;;;;;;21.15;12.40;;;;;;;3.02;67.21;100427.75;5034669;28;20049;-81
2021/09/21 00:42:26;;;;;;;22.73;12.00;;;;;;;3.02;67.17;100422.47;5018251;28;20144;-80
2021/09/21 00:45:00;;;;;;;21.88;11.68;;;;;;;3.07;67.37;100426.66;5034918;28;20044;-81
2021/09/21 00:47:27;;;;;;;23.02;11.52;;;;;;;3.09;67.12;100424.84;5002447;28;20415;-79
2021/09/21 00:49:53;;;;;;;24.73;11.50;;;;;;;3.04;67.12;100415.31;5018839;28;20045;-80
2021/09/21 00:52:19;;;;;;;27.63;11.20;;;;;;;3.04;67.21;100425.91;5051315;28;20250;-82
2021/09/21 00:54:46;;;;;;;28.60;12.20;;;;;;;3.00;67.05;100425.13;5051555;28;20135;-83
2021/09/21 00:57:12;;;;;;;25.42;10.93;;;;;;;3.02;67.21;100423.31;5002368;28;20198;-84
2021/09/21 00:59:38;;;;;;;24.88;11.88;;;;;;;3.06;66.99;100419.66;5053166;28;20040;-83
2021/09/21 01:02:04;;;;;;;26.58;11.60;;;;;;;3.05;66.87;100423.22;5019095;28;20049;-83
2021/09/21 01:04:30;;;;;;;26.90;12.35;;;;;;;3.04;66.80;100416.19;5053326;28;20048;-79
2021/09/21 01:06:56;;;;;;;31.30;11.85;;;;;;;3.06;66.90;100419.66;5052027;28;20052;-79
2021/09/21 01:09:22;;;;;;;36.92;12.52;;;;;;;3.13;66.69;100415.91;5035455;28;20036;-77
2021/09/21 01:11:59;;;;;;;38.72;12.52;;;;;;;3.20;66.50;100420.97;5034793;28;20045;-79
2021/09/21 01:14:25;;;;;;;42.50;12.05;;;;;;;3.26;66.51;100431.34;5052839;28;20041;-82
2021/09/21 01:16:52;;;;;;;48.47;13.55;;;;;;;3.28;66.22;100434.81;5052546;28;20465;-83
2021/09/21 01:19:18;;;;;;;41.45;12.70;;;;;;;3.32;66.18;100425.88;5055463;28;20052;-85
2021/09/21 01:21:45;;;;;;;35.55;11.85;;;;;;;3.33;66.17;100431.09;5038987;28;20398;-84
2021/09/21 01:24:11;;;;;;;40.45;11.20;;;;;;;3.39;66.16;100428.28;5056561;28;20045;-84
2021/09/21 01:26:37;;;;;;;39.33;11.23;;;;;;;3.45;65.70;100426.31;5038765;28;20053;-84
2021/09/21 01:29:03;;;;;;;35.38;11.18;;;;;;;3.48;65.33;100428.88;5055639;28;20049;-83
2021/09/21 01:31:29;;;;;;;37.58;11.13;;;;;;;3.54;65.42;100437.47;5054705;28;20041;-84
2021/09/21 01:33:55;;;;;;;31.17;11.65;;;;;;;3.57;65.18;100436.47;5056053;28;20041;-85
2021/09/21 01:36:23;;;;;;;42.03;12.38;;;;;;;3.62;65.11;100435.44;5038184;28;20052;-86
2021/09/21 01:38:49;;;;;;;34.28;11.07;;;;;;;3.67;64.94;100437.03;5054702;28;20045;-84
2021/09/21 01:41:14;;;;;;;35.20;11.38;;;;;;;3.65;64.88;100443.25;5055875;28;20403;-87
2021/09/21 01:43:42;;;;;;;36.70;12.18;;;;;;;3.68;64.58;100441.41;5055746;28;20154;-85
2021/09/21 01:46:09;;;;;;;34.60;11.43;;;;;;;3.72;64.73;100450.97;5054382;28;20576;-86
2021/09/21 01:48:35;;;;;;;45.15;12.43;;;;;;;3.75;64.54;100445.56;5005155;28;20447;-85
2021/09/21 01:51:12;;;;;;;34.38;12.23;;;;;;;3.76;64.71;100445.53;5054533;28;20040;-80
2021/09/21 01:53:45;;;;;;;41.03;11.93;;;;;;;3.85;64.44;100452.28;5054813;28;20128;-80
2021/09/21 01:58:55;;;;;;;37.17;9.88;;;;;;;3.98;63.92;100458.00;5054317;28;20053;-82
2021/09/21 02:01:23;;;;;;;36.60;10.73;;;;;;;4.01;63.54;100457.91;5054329;28;20041;-81
2021/09/21 02:03:51;;;;;;;35.17;11.73;;;;;;;4.06;63.67;100463.88;5055642;28;20083;-81
2021/09/21 02:06:17;;;;;;;37.15;11.50;;;;;;;4.09;63.60;100462.00;5037758;28;20139;-82
2021/09/21 02:08:43;;;;;;;36.58;10.25;;;;;;;4.17;63.09;100471.44;5054035;28;20081;-82
2021/09/21 02:11:09;;;;;;;41.75;10.40;;;;;;;4.21;63.09;100465.97;5053868;28;20067;-83
2021/09/21 02:13:35;;;;;;;32.38;10.50;;;;;;;4.26;63.04;100463.19;5037340;28;20098;-83
2021/09/21 02:16:01;;;;;;;27.83;9.93;;;;;;;4.31;62.79;100455.94;5037160;28;20041;-82
2021/09/21 02:18:27;;;;;;;38.63;9.90;;;;;;;4.38;62.63;100463.59;5055103;28;20040;-81
2021/09/21 02:20:52;;;;;;;32.20;10.38;;;;;;;4.42;62.42;100456.41;5053998;28;20049;-84
2021/09/21 02:23:18;;;;;;;33.35;10.13;;;;;;;4.51;62.27;100457.84;5037392;28;20037;-84
2021/09/21 02:25:44;;;;;;;28.00;10.00;;;;;;;4.53;62.31;100450.72;5037545;28;20198;-86
2021/09/21 02:28:10;;;;;;;28.25;9.98;;;;;;;4.59;62.04;100456.66;5037154;28;20495;-85
2021/09/21 02:30:36;;;;;;;27.33;8.38;;;;;;;4.63;61.66;100452.09;5055130;28;20087;-84
2021/09/21 02:33:03;;;;;;;32.10;10.13;;;;;;;4.75;61.58;100462.22;5053520;28;20045;-89
2021/09/21 02:35:28;;;;;;;29.65;10.43;;;;;;;4.75;61.33;100445.47;5053864;28;20052;-87
2021/09/21 02:37:54;;;;;;;33.33;10.13;;;;;;;4.94;61.01;100461.53;5054466;28;20057;-85
2021/09/21 02:40:20;;;;;;;27.88;9.35;;;;;;;5.02;61.06;100475.31;5054702;28;20396;-81
2021/09/21 02:42:46;;;;;;;32.55;9.63;;;;;;;5.08;60.48;100465.34;5055242;28;20061;-85
2021/09/21 02:45:12;;;;;;;38.15;10.27;;;;;;;5.16;60.47;100464.19;5054380;28;20041;-83
2021/09/21 02:47:38;;;;;;;27.95;9.48;;;;;;;5.23;60.46;100463.88;5054005;28;20049;-84
2021/09/21 02:50:05;;;;;;;33.22;10.20;;;;;;;5.33;60.14;100464.34;5055062;28;20049;-84
2021/09/21 02:52:31;;;;;;;29.80;9.85;;;;;;;5.39;60.13;100461.47;5054347;28;20045;-82
2021/09/21 02:54:57;;;;;;;33.92;11.75;;;;;;;5.48;59.91;100465.53;5054792;28;20367;-81
2021/09/21 02:57:23;;;;;;;34.55;10.70;;;;;;;5.58;59.74;100470.38;5019365;28;20049;-84
2021/09/21 02:59:49;;;;;;;40.83;9.85;;;;;;;5.69;59.87;100466.44;5047897;28;20049;-83
2021/09/21 03:02:15;;;;;;;47.20;11.88;;;;;;;5.78;59.40;100466.88;5038071;28;20077;-83
2021/09/21 03:04:50;;;;;;;20.48;9.07;;;;;;;5.81;59.13;100455.28;5034271;28;20542;-83
2021/09/21 03:07:25;;;;;;;28.85;9.23;;;;;;;5.94;58.72;100467.16;5002866;28;20075;-82
2021/09/21 03:10:03;;;;;;;30.27;8.70;;;;;;;6.03;58.48;100466.75;5034092;28;20103;-85
2021/09/21 03:12:55;;;;;;;19.50;8.63;;;;;;;6.08;58.21;100458.56;5032703;28;20504;-80
2021/09/21 03:18:00;;;;;;;19.88;7.28;;;;;;;6.37;57.62;100459.94;5033245;28;20049;-82
2021/09/21 03:20:26;;;;;;;21.33;7.80;;;;;;;6.47;57.12;100457.72;5032712;28;20060;-80
2021/09/21 03:22:52;;;;;;;27.55;7.85;;;;;;;6.60;56.97;100455.38;5016810;28;20049;-85
2021/09/21 03:25:18;;;;;;;22.40;8.73;;;;;;;6.76;56.71;100461.72;5032858;28;20120;-80
2021/09/21 03:27:44;;;;;;;35.80;11.40;;;;;;;6.91;56.29;100463.66;5034385;28;20492;-78
2021/09/21 03:30:12;;;;;;;30.58;10.15;;;;;;;7.04;56.23;100462.16;5034038;28;20045;-84
2021/09/21 03:32:38;;;;;;;24.67;10.23;;;;;;;7.06;55.44;100460.25;5034093;28;20049;-86
2021/09/21 03:35:05;;;;;;;38.55;8.10;;;;;;;7.13;55.17;100457.31;5032519;28;20048;-85
2021/09/21 03:37:31;;;;;;;24.42;8.40;;;;;;;7.23;55.01;100450.63;5034127;28;20053;-85
2021/09/21 03:39:57;;;;;;;31.90;7.50;;;;;;;7.25;54.54;100464.69;5034036;28;20052;-85
2021/09/21 03:42:24;;;;;;;25.58;7.78;;;;;;;7.28;54.83;100459.25;5034085;28;20508;-86
2021/09/21 03:44:50;;;;;;;19.98;7.13;;;;;;;7.41;54.54;100455.06;5039645;28;20127;-84
2021/09/21 03:47:16;;;;;;;21.42;6.97;;;;;;;7.62;54.22;100458.44;5033450;28;20045;-81
2021/09/21 03:49:42;;;;;;;13.27;6.28;;;;;;;7.75;53.55;100456.03;5033864;28;20064;-82
2021/09/21 03:52:08;;;;;;;15.25;5.53;;;;;;;7.91;53.47;100459.63;5034289;28;20045;-85
2021/09/21 03:54:34;;;;;;;10.07;5.90;;;;;;;7.94;51.91;100458.63;5032432;28;20400;-79
2021/09/21 03:57:00;;;;;;;19.83;5.78;;;;;;;8.03;52.36;100464.31;5033329;28;20056;-80
2021/09/21 03:59:27;;;;;;;12.15;5.80;;;;;;;8.13;52.15;100464.72;5032705;28;20076;-77
2021/09/21 04:01:53;;;;;;;20.90;5.60;;;;;;;8.19;51.66;100466.19;5033688;28;20045;-80
2021/09/21 04:04:19;;;;;;;23.27;5.78;;;;;;;8.20;51.61;100454.59;5016712;28;20041;-79
2021/09/21 04:10:58;;;;;;;16.73;5.68;;;;;;;8.13;50.86;100461.19;5033055;28;20160;-79
2021/09/21 04:13:25;;;;;;;8.00;4.93;;;;;;;8.14;50.27;100442.47;5033258;28;20065;-84
2021/09/21 04:15:51;;;;;;;11.95;6.03;;;;;;;8.16;50.54;100448.59;5031514;28;20072;-80
2021/09/21 04:18:17;;;;;;;13.77;5.22;;;;;;;8.29;50.75;100446.13;5031714;28;20056;-80
2021/09/21 04:20:43;;;;;;;13.10;9.10;;;;;;;8.45;49.93;100449.72;5032885;28;20103;-79
2021/09/21 04:23:08;;;;;;;16.00;5.20;;;;;;;8.38;49.33;100450.13;5032892;28;20050;-80
2021/09/21 04:25:34;;;;;;;16.80;5.45;;;;;;;8.29;49.44;100443.47;5015345;28;20136;-78
2021/09/21 04:28:00;;;;;;;11.65;5.28;;;;;;;8.43;49.16;100448.09;5032667;28;20488;-78
2021/09/21 04:30:27;;;;;;;9.73;4.47;;;;;;;8.50;49.20;100442.34;5015105;28;20038;-79
2021/09/21 04:32:53;;;;;;;16.60;5.70;;;;;;;8.72;49.40;100442.03;4998704;28;20132;-78
2021/09/21 04:35:19;;;;;;;12.48;5.60;;;;;;;8.85;49.07;100442.22;5031182;28;20471;-80
2021/09/21 04:37:45;;;;;;;14.75;5.15;;;;;;;9.02;48.30;100446.59;5016820;28;20045;-78
2021/09/21 04:40:11;;;;;;;8.13;5.50;;;;;;;9.16;48.16;100448.50;5034417;28;20111;-79
2021/09/21 04:42:37;;;;;;;10.77;5.43;;;;;;;9.37;47.87;100444.63;5033618;28;20057;-79
2021/09/21 04:45:03;;;;;;;8.93;4.85;;;;;;;9.33;46.90;100445.75;5031358;28;20052;-79
2021/09/21 04:47:29;;;;;;;13.02;5.45;;;;;;;9.23;47.52;100453.41;5031504;28;20445;-79
2021/09/21 04:49:54;;;;;;;12.35;5.13;;;;;;;9.40;47.33;100444.44;5030604;28;20133;-91
2021/09/21 04:52:20;;;;;;;10.48;5.22;;;;;;;9.43;46.50;100452.25;5032152;28;20496;-79
2021/09/21 04:54:46;;;;;;;11.07;5.05;;;;;;;9.33;46.88;100443.09;5035423;28;20152;-81
2021/09/21 04:57:12;;;;;;;9.45;5.30;;;;;;;9.48;47.08;100452.00;5035078;28;20100;-79
2021/09/21 04:59:38;;;;;;;12.32;5.90;;;;;;;9.67;46.33;100444.66;5034393;28;20076;-81
2021/09/21 05:02:04;;;;;;;9.38;4.57;;;;;;;9.77;46.10;100447.63;5033906;28;20365;-80
2021/09/21 05:04:30;;;;;;;11.80;4.97;;;;;;;9.85;46.39;100455.19;5043745;28;20043;-79
2021/09/21 05:06:56;;;;;;;10.27;4.68;;;;;;;9.78;45.86;100449.38;5054790;28;20526;-79
2021/09/21 05:09:22;;;;;;;9.23;4.35;;;;;;;9.73;45.59;100448.75;5055818;28;20124;-80
2021/09/21 05:11:48;;;;;;;184.25;101.50;;;;;;;9.91;45.82;100445.00;5056367;28;20048;-81
2021/09/21 05:14:14;;;;;;;14.38;5.20;;;;;;;10.08;45.83;100443.09;5055116;28;20485;-80
2021/09/21 05:16:40;;;;;;;12.70;5.75;;;;;;;10.21;45.23;100442.28;5056295;28;20047;-79
2021/09/21 05:19:07;;;;;;;11.10;5.18;;;;;;;10.26;44.93;100439.34;5056112;28;20080;-79
2021/09/21 05:21:34;;;;;;;11.90;6.65;;;;;;;10.41;44.64;100442.91;5056013;28;20041;-79
2021/09/21 05:24:00;;;;;;;8.35;5.35;;;;;;;10.44;44.17;100437.38;5054868;28;20083;-80
2021/09/21 05:26:26;;;;;;;10.13;5.80;;;;;;;10.40;44.25;100442.03;5056839;28;20045;-82
2021/09/21 05:28:52;;;;;;;9.07;5.38;;;;;;;10.45;44.57;100436.41;5055770;28;20467;-81
2021/09/21 05:31:18;;;;;;;12.52;5.60;;;;;;;10.62;44.30;100441.56;5054950;28;20124;-82
2021/09/21 05:33:44;;;;;;;9.77;4.78;;;;;;;10.65;44.23;100443.22;5054498;28;20562;-81
2021/09/21 05:36:09;;;;;;;9.93;4.63;;;;;;;10.65;44.49;100440.53;5054286;28;20055;-82
2021/09/21 05:38:35;;;;;;;11.15;5.78;;;;;;;10.80;44.27;100428.00;5054435;28;20040;-82
2021/09/21 05:41:01;;;;;;;16.10;5.50;;;;;;;10.96;44.28;100431.41;5037729;28;20439;-81
2021/09/21 05:43:27;;;;;;;13.57;5.78;;;;;;;11.18;43.84;100433.56;5055647;28;20549;-83
2021/09/21 05:45:53;;;;;;;13.23;5.25;;;;;;;11.34;43.66;100433.41;5054084;28;20060;-82
2021/09/21 05:48:19;;;;;;;14.95;5.80;;;;;;;11.40;43.02;100428.53;5055132;28;20069;-83
2021/09/21 05:50:45;;;;;;;11.90;5.43;;;;;;;11.49;42.33;100434.22;5036357;28;20095;-82
2021/09/21 05:53:13;;;;;;;9.80;5.18;;;;;;;11.43;43.05;100433.69;5036355;28;20056;-80
2021/09/21 05:56:10;;;;;;;11.07;5.33;;;;;;;11.54;43.30;100429.41;5019461;28;20075;-82
2021/09/21 05:58:42;;;;;;;11.27;5.97;;;;;;;11.67;43.40;100424.97;5013418;28;20162;-83
2021/09/21 06:01:13;;;;;;;9.48;6.18;;;;;;;11.84;43.19;100408.63;5005168;28;20167;-79
2021/09/21 06:04:00;;;;;;;13.77;6.65;;;;;;;12.04;42.56;100422.50;4988141;28;20071;-81
2021/09/21 06:06:30;;;;;;;16.20;6.32;;;;;;;11.94;42.47;100416.03;4995300;28;20489;-79
2021/09/21 06:08:56;;;;;;;12.88;6.28;;;;;;;11.97;42.49;100399.75;5035917;28;20086;-80
2021/09/21 06:11:32;;;;;;;18.88;6.78;;;;;;;11.98;42.94;100417.53;5020894;28;20044;-79
2021/09/21 06:14:02;;;;;;;8.80;5.57;;;;;;;12.24;42.48;100408.53;4989290;28;20041;-82
2021/09/21 06:16:29;;;;;;;12.98;6.13;;;;;;;12.52;42.16;100406.59;4987230;28;20638;-83
2021/09/21 06:18:55;;;;;;;12.77;6.55;;;;;;;12.73;41.95;100405.06;5019227;28;20051;-82
2021/09/21 06:21:38;;;;;;;9.03;6.00;;;;;;;12.80;40.34;100405.50;5019680;28;20063;-82
2021/09/21 06:24:27;;;;;;;10.98;6.07;;;;;;;12.75;41.14;100397.78;5024773;28;20045;-80
2021/09/21 06:27:06;;;;;;;12.05;6.55;;;;;;;12.82;40.91;100404.38;4991879;28;20041;-83
2021/09/21 06:29:46;;;;;;;10.65;5.38;;;;;;;12.91;40.19;100385.94;4987550;28;20139;-82
2021/09/21 06:32:18;;;;;;;11.48;4.47;;;;;;;12.94;40.21;100380.31;5022476;28;20040;-83
2021/09/21 06:34:45;;;;;;;6.22;3.97;;;;;;;13.02;38.70;100388.69;5018827;28;20399;-83
2021/09/21 06:37:38;;;;;;;8.23;3.80;;;;;;;13.10;38.73;100391.66;5026555;28;20503;-82
2021/09/21 06:40:13;;;;;;;5.85;3.50;;;;;;;13.17;38.56;100384.88;5020544;28;20045;-82
2021/09/21 06:43:28;;;;;;;12.25;3.65;;;;;;;13.20;37.89;100381.97;4982141;28;20172;-83
2021/09/21 06:45:56;;;;;;;8.05;3.40;;;;;;;13.18;37.93;100381.19;4956524;28;20522;-81
2021/09/21 06:48:27;;;;;;;8.02;3.33;;;;;;;13.34;37.62;100378.25;5023182;28;20048;-82
2021/09/21 06:50:57;;;;;;;6.38;3.63;;;;;;;13.31;37.44;100384.72;5007786;28;20139;-82
2021/09/21 06:53:31;;;;;;;3.67;3.03;;;;;;;13.38;37.63;100390.47;5006538;28;20050;-82
2021/09/21 06:56:06;;;;;;;8.48;3.30;;;;;;;13.25;37.41;100366.38;5023293;28;20044;-82
2021/09/21 06:58:43;;;;;;;9.25;3.67;;;;;;;13.41;37.47;100373.28;5021101;28;20144;-82
2021/09/21 07:01:24;;;;;;;6.60;3.13;;;;;;;13.67;37.54;100385.59;5022802;28;20534;-81
2021/09/21 07:03:51;;;;;;;5.85;3.38;;;;;;;13.53;36.76;100367.81;5025616;28;20056;-86
2021/09/21 07:06:18;;;;;;;7.82;3.50;;;;;;;13.42;37.13;100369.63;5040265;28;20131;-83
2021/09/21 07:08:44;;;;;;;5.65;3.55;;;;;;;13.51;37.07;100375.16;5024970;28;20048;-81
2021/09/21 07:11:10;;;;;;;10.38;3.45;;;;;;;13.52;36.91;100359.91;5007642;28;20051;-80
2021/09/21 07:13:37;;;;;;;7.55;3.85;;;;;;;13.53;37.22;100377.72;5029326;28;20053;-82
2021/09/21 07:16:03;;;;;;;6.82;3.42;;;;;;;13.63;36.83;100357.25;5018487;28;20417;-81
2021/09/21 07:18:30;;;;;;;4.90;3.50;;;;;;;13.69;36.98;100355.91;5002644;28;20135;-85
2021/09/21 07:20:56;;;;;;;6.32;3.47;;;;;;;13.91;36.45;100363.16;5002613;28;20072;-82
2021/09/21 07:23:22;;;;;;;7.15;3.25;;;;;;;14.13;36.19;100362.34;5001651;28;20401;-82
2021/09/21 07:25:49;;;;;;;5.03;3.17;;;;;;;14.38;35.89;100380.97;4985188;28;20049;-81
2021/09/21 07:28:15;;;;;;;6.03;3.38;;;;;;;14.54;36.22;100365.34;4985053;28;20143;-83
2021/09/21 07:30:41;;;;;;;20.98;3.97;;;;;;;14.63;34.53;100362.88;5001719;28;20045;-80
2021/09/21 07:33:15;;;;;;;3.20;2.90;;;;;;;14.51;34.51;100370.94;4985282;28;20486;-82
2021/09/21 07:35:41;;;;;;;4.82;3.33;;;;;;;14.52;34.81;100374.53;4986855;28;20047;-82
2021/09/21 07:38:07;;;;;;;5.25;3.45;;;;;;;14.63;34.92;100363.75;5001390;28;20040;-81
2021/09/21 07:40:37;;;;;;;5.13;3.13;;;;;;;14.79;34.11;100364.22;4985008;28;20045;-82
2021/09/21 07:43:08;;;;;;;4.82;2.85;;;;;;;14.71;34.15;100349.69;4987502;28;20515;-82
2021/09/21 07:45:35;;;;;;;3.92;2.90;;;;;;;14.90;34.19;100349.03;5002396;28;20583;-82
2021/09/21 07:48:04;;;;;;;6.40;3.53;;;;;;;15.36;34.46;100369.44;5018824;28;20095;-81
2021/09/21 07:50:43;;;;;;;8.43;2.85;;;;;;;15.41;33.38;100364.53;5020391;28;20049;-82
2021/09/21 07:53:09;;;;;;;6.75;3.30;;;;;;;15.49;33.34;100353.94;4985350;28;20041;-81
2021/09/21 07:56:08;;;;;;;5.35;3.10;;;;;;;15.54;33.38;100343.66;4984775;28;20037;-84
2021/09/21 07:59:16;;;;;;;6.22;3.20;;;;;;;15.68;33.02;100364.94;5050589;28;20052;-83
2021/09/21 08:01:45;;;;;;;3.92;3.03;;;;;;;15.61;33.21;100347.53;5033843;28;20041;-81
2021/09/21 08:04:15;;;;;;;;;;;;;;;15.59;32.92;100362.97;5002087;28;20056;-83
2021/09/21 08:06:57;;;;;;;4.70;2.72;;;;;;;15.49;32.87;100341.31;5035211;28;19916;-83
2021/09/21 08:09:28;;;;;;;6.65;3.47;;;;;;;15.53;32.93;100339.22;5003126;28;20090;-81
2021/09/21 08:11:54;;;;;;;;;;;;;;;15.77;33.17;100365.97;5018048;28;20483;-81
2021/09/21 08:14:23;;;;;;;6.22;4.05;;;;;;;15.72;32.94;100374.47;5017728;28;20082;-81
2021/09/21 08:16:52;;;;;;;6.20;3.75;;;;;;;15.83;31.99;100364.59;4984772;28;20514;-82
2021/09/21 08:19:22;;;;;;;7.90;4.30;;;;;;;15.78;32.77;100346.97;4984602;28;20526;-85
2021/09/21 08:21:49;;;;;;;9.77;4.28;;;;;;;15.78;32.59;100332.63;5001108;28;20431;-84
2021/09/21 08:24:15;;;;;;;6.65;3.80;;;;;;;15.83;32.43;100345.72;5016695;28;20110;-82
2021/09/21 08:27:00;;;;;;;7.20;3.67;;;;;;;15.92;32.36;100344.94;5000283;28;20083;-82
2021/09/21 08:30:01;;;;;;;9.93;3.83;;;;;;;16.13;32.34;100343.06;5021859;28;20053;-84
2021/09/21 08:32:48;;;;;;;8.30;3.87;;;;;;;16.12;31.77;100343.19;4986953;28;20037;-86
2021/09/21 08:35:15;;;;;;;6.53;3.60;;;;;;;16.05;31.84;100320.44;5002778;28;20103;-82
2021/09/21 08:37:43;;;;;;;10.85;3.80;;;;;;;16.11;32.06;100326.16;4984210;28;20528;-82
2021/09/21 08:40:13;;;;;;;11.30;4.47;;;;;;;16.29;31.93;100334.50;5018105;28;20045;-81
2021/09/21 08:42:42;;;;;;;6.95;3.70;;;;;;;16.25;31.64;100314.16;5000219;28;20045;-82
2021/09/21 08:45:11;;;;;;;13.32;4.90;;;;;;;16.34;31.75;100325.97;5000880;28;20107;-82
2021/09/21 08:47:41;;;;;;;13.35;5.45;;;;;;;16.37;31.74;100325.72;5001832;28;20048;-81
2021/09/21 08:50:15;;;;;;;9.10;3.97;;;;;;;16.50;31.75;100315.53;4986410;28;20037;-82
2021/09/21 08:52:49;;;;;;;13.35;4.68;;;;;;;16.61;31.11;100304.63;5001682;28;20397;-81
2021/09/21 08:55:24;;;;;;;7.32;3.55;;;;;;;16.58;31.12;100312.97;4986458;28;20052;-83
2021/09/21 08:57:59;;;;;;;6.72;3.38;;;;;;;16.60;31.55;100311.00;4985962;28;20040;-82
2021/09/21 09:00:35;;;;;;;6.20;3.35;;;;;;;16.89;30.91;100299.47;5017590;28;20036;-80
2021/09/21 09:03:17;;;;;;;8.52;3.72;;;;;;;16.79;30.85;100304.00;5019042;28;20461;-80
2021/09/21 09:05:58;;;;;;;7.88;4.03;;;;;;;16.89;30.95;100315.66;5002269;28;20033;-82
2021/09/21 09:08:33;;;;;;;5.50;3.60;;;;;;;16.81;31.07;100302.00;5017679;28;20041;-82
2021/09/21 09:11:25;;;;;;;5.55;3.30;;;;;;;16.59;30.90;100303.91;5033202;28;20056;-80
2021/09/21 09:14:00;;;;;;;3.95;2.95;;;;;;;16.95;30.47;100309.69;5004002;28;20515;-83
2021/09/21 09:16:32;;;;;;;6.25;3.40;;;;;;;17.04;29.98;100303.47;5000449;28;20036;-80
2021/09/21 09:19:09;;;;;;;5.35;2.95;;;;;;;16.83;30.47;100300.03;5001697;28;20041;-82
2021/09/21 09:21:49;;;;;;;9.45;3.28;;;;;;;16.84;30.24;100301.72;5002270;28;20068;-82
2021/09/21 09:24:20;;;;;;;9.25;3.53;;;;;;;16.83;29.84;100295.47;4988498;28;20048;-82
2021/09/21 09:26:46;;;;;;;7.57;3.42;;;;;;;17.04;29.85;100302.59;4988972;28;20049;-82
2021/09/21 09:29:14;;;;;;;6.07;3.58;;;;;;;17.23;29.42;100303.47;5000651;28;20045;-81
2021/09/21 09:31:47;;;;;;;6.25;3.85;;;;;;;17.32;29.59;100293.66;5001182;28;20040;-81
2021/09/21 09:34:24;;;;;;;10.48;3.90;;;;;;;17.40;29.76;100282.13;5018379;28;20075;-81
2021/09/21 09:36:57;;;;;;;13.65;3.92;;;;;;;17.65;29.18;100292.34;4985339;28;20037;-80
2021/09/21 09:39:33;;;;;;;3.80;2.80;;;;;;;17.77;28.64;100294.91;5021408;28;20144;-81
2021/09/21 09:42:02;;;;;;;6.55;3.00;;;;;;;17.69;28.84;100293.75;5005144;28;20045;-82
2021/09/21 09:44:31;;;;;;;6.50;3.00;;;;;;;17.90;29.25;100300.84;5036760;28;20076;-81
2021/09/21 09:47:06;;;;;;;9.68;3.70;;;;;;;17.92;28.70;100282.63;5004844;28;20045;-81
2021/09/21 09:49:59;;;;;;;;;;;;;;;;;;;;;
2021/09/21 09:52:40;;;;;;;7.50;2.97;;;;;;;17.30;28.89;100287.56;5007540;28;20090;-80
2021/09/21 09:55:18;;;;;;;10.43;3.00;;;;;;;17.50;29.42;100304.59;5021955;28;20507;-83
2021/09/21 09:58:05;;;;;;;5.30;3.03;;;;;;;17.19;29.44;100280.44;4987716;28;20036;-81
2021/09/21 10:00:39;;;;;;;7.40;2.72;;;;;;;17.41;29.31;100295.50;5008532;28;20538;-82
2021/09/21 10:03:12;;;;;;;7.72;3.38;;;;;;;17.62;28.66;100281.81;5036006;28;20056;-81
2021/09/21 10:05:41;;;;;;;8.75;3.05;;;;;;;17.91;28.37;100291.75;5004483;28;20044;-81
2021/09/21 10:08:11;;;;;;;10.45;3.50;;;;;;;17.87;28.37;100279.53;5020139;28;20056;-83
2021/09/21 10:10:43;;;;;;;9.13;3.10;;;;;;;18.02;28.31;100283.44;5004952;28;20139;-82
2021/09/21 10:13:38;;;;;;;5.93;2.92;;;;;;;17.76;28.33;100282.41;4989540;28;20492;-81
2021/09/21 10:16:10;;;;;;;8.98;3.03;;;;;;;17.62;29.33;100276.41;5038055;28;20052;-82
2021/09/21 10:18:52;;;;;;;6.75;3.58;;;;;;;17.84;29.19;100274.41;5003162;28;20053;-82
2021/09/21 10:21:40;;;;;;;13.77;2.72;;;;;;;18.13;28.07;100275.16;5009884;28;20041;-82
2021/09/21 10:24:37;;;;;;;11.52;3.63;;;;;;;18.04;28.23;100284.13;5034476;28;20041;-83
2021/09/21 10:27:39;;;;;;;6.03;3.25;;;;;;;18.09;28.40;100292.69;5002164;28;20061;-80
2021/09/21 10:30:56;;;;;;;8.93;2.95;;;;;;;17.88;28.73;100275.81;5034876;28;20052;-81
2021/09/21 10:33:32;;;;;;;3.40;3.00;;;;;;;17.96;28.97;100284.03;5000939;28;20033;-82
2021/09/21 10:36:02;;;;;;;6.03;3.13;;;;;;;17.90;28.91;100269.25;5002688;28;20044;-84
2021/09/21 10:38:33;;;;;;;7.75;3.10;;;;;;;17.92;29.14;100288.88;5017221;28;20713;-82
2021/09/21 10:41:03;;;;;;;7.93;3.30;;;;;;;17.89;29.19;100277.50;4985405;28;20064;-85
2021/09/21 10:43:36;;;;;;;8.48;4.00;;;;;;;17.91;28.79;100280.94;5000771;28;20068;-83
2021/09/21 10:46:22;;;;;;;9.15;4.53;;;;;;;17.63;29.22;100283.50;5018398;28;20515;-81
2021/09/21 10:48:51;;;;;;;8.45;3.15;;;;;;;17.57;29.41;100254.38;5001632;28;20115;-79
2021/09/21 10:51:17;;;;;;;6.18;3.40;;;;;;;17.60;28.75;100256.78;4984612;28;20146;-82
2021/09/21 10:53:57;;;;;;;9.00;2.85;;;;;;;17.47;28.89;100267.88;5017967;28;20514;-80
2021/09/21 10:56:49;;;;;;;5.25;3.30;;;;;;;17.40;28.87;100271.31;5004767;28;20137;-79
2021/09/21 10:59:16;;;;;;;6.97;3.45;;;;;;;17.40;29.56;100260.50;4985981;28;20053;-80
2021/09/21 11:01:55;;;;;;;5.80;3.47;;;;;;;17.50;29.52;100271.31;4985698;28;20131;-82
2021/09/21 11:04:46;;;;;;;6.15;3.30;;;;;;;17.39;29.38;100266.91;4986490;28;20041;-83
2021/09/21 11:07:37;;;;;;;4.97;3.28;;;;;;;17.43;29.51;100265.63;5005704;28;20041;-81
2021/09/21 11:10:05;;;;;;;6.07;3.67;;;;;;;17.36;29.34;100264.50;5004760;28;20041;-78
2021/09/21 11:12:31;;;;;;;6.13;3.72;;;;;;;17.38;29.56;100254.41;5000710;28;20037;-81
2021/09/21 11:14:58;;;;;;;6.88;3.85;;;;;;;17.39;29.15;100256.94;4956222;28;20061;-80
2021/09/21 11:17:25;;;;;;;6.10;3.58;;;;;;;17.27;29.60;100254.56;4961263;28;20053;-79
2021/09/21 11:19:55;;;;;;;12.43;5.10;;;;;;;17.43;29.93;100262.91;4978161;28;20046;-83
2021/09/21 11:22:26;;;;;;;5.65;3.40;;;;;;;17.51;29.66;100260.34;4978546;28;20054;-83
2021/09/21 11:25:14;;;;;;;6.63;3.17;;;;;;;17.41;29.54;100262.19;4964357;28;20046;-84
2021/09/21 11:27:41;;;;;;;9.10;3.10;;;;;;;17.26;29.32;100236.59;4978169;28;20168;-79
2021/09/21 11:30:08;;;;;;;9.75;3.58;;;;;;;17.31;29.52;100261.38;4977747;28;20103;-81
2021/09/21 11:32:34;;;;;;;6.13;3.47;;;;;;;17.20;29.77;100235.34;4962037;28;20046;-81
2021/09/21 11:35:03;;;;;;;4.70;3.47;;;;;;;17.29;29.38;100249.84;4948756;28;20060;-81
2021/09/21 11:37:29;;;;;;;8.10;3.53;;;;;;;17.33;29.59;100256.66;4972158;28;20053;-80
2021/09/21 11:39:55;;;;;;;7.57;3.78;;;;;;;17.19;29.76;100231.81;4982348;28;20108;-80
2021/09/21 11:42:26;;;;;;;8.95;3.78;;;;;;;17.38;29.71;100241.72;4929853;28;20038;-82
2021/09/21 11:45:09;;;;;;;9.75;3.60;;;;;;;17.21;29.87;100229.78;4946170;28;20046;-81
2021/09/21 11:47:40;;;;;;;4.80;3.10;;;;;;;17.35;29.70;100224.97;4944925;28;20069;-82
2021/09/21 11:50:15;;;;;;;8.65;3.40;;;;;;;17.56;29.64;100233.72;4944984;28;20045;-82